Time;durP1;ratioP1;P1;durP2;ratioP2;P2;SDS_P1;SDS_P2;PMS_P1;PMS_P2;Temp;Humidity;BMP_temperature;BMP_pressure;BME280_temperature;BME280_humidity;BME280_pressure;Samples;Min_cycle;Max_cycle;Signal;HPM_P1;HPM_P2
2023/03/23 00:01:51;;;;;;;6.73;4.80;;;;;6.70;96505.00;;;;5090515;28;20234;-72
2023/03/23 00:04:39;;;;;;;5.77;4.77;;;;;6.60;96494.00;;;;5099619;28;20647;-69
2023/03/23 00:07:28;;;;;;;9.97;5.27;;;;;6.80;96509.00;;;;5099890;28;20209;-70
2023/03/23 00:10:16;;;;;;;4.77;3.97;;;;;6.90;96509.00;;;;5098128;28;20206;-69
2023/03/23 00:13:04;;;;;;;5.47;4.20;;;;;7.00;96504.00;;;;5110396;28;20210;-70
2023/03/23 00:15:53;;;;;;;4.97;4.47;;;;;7.10;96504.00;;;;5094967;28;20272;-69
2023/03/23 00:18:40;;;;;;;4.23;3.87;;;;;7.40;96502.00;;;;5101945;28;20214;-69
2023/03/23 00:21:34;;;;;;;4.30;3.87;;;;;7.50;96509.00;;;;5093720;28;20364;-69
2023/03/23 00:24:23;;;;;;;6.00;4.57;;;;;7.50;96515.00;;;;5090506;28;20248;-69
2023/03/23 00:27:14;;;;;;;4.30;3.57;;;;;7.50;96506.00;;;;5102033;28;20219;-69
2023/03/23 00:30:02;;;;;;;7.00;4.97;;;;;7.10;96504.00;;;;5095166;28;20249;-69
2023/03/23 00:32:50;;;;;;;4.90;4.30;;;;;6.90;96496.00;;;;5110722;28;20191;-69
2023/03/23 00:35:38;;;;;;;7.37;4.70;;;;;6.90;96497.00;;;;5091255;28;20673;-69
2023/03/23 00:38:26;;;;;;;6.00;4.37;;;;;6.90;96503.00;;;;5095044;28;20265;-69
2023/03/23 00:41:16;;;;;;;5.40;4.87;;;;;6.80;96501.00;;;;5095167;28;20221;-70
2023/03/23 00:44:04;;;;;;;4.83;4.37;;;;;6.90;96501.00;;;;5094421;28;20802;-71
2023/03/23 00:46:52;;;;;;;5.03;4.33;;;;;7.10;96499.00;;;;5094239;28;20731;-70
2023/03/23 00:49:40;;;;;;;5.47;4.13;;;;;7.10;96497.00;;;;5094361;28;20291;-71
2023/03/23 00:52:28;;;;;;;7.47;4.77;;;;;7.10;96489.00;;;;5100297;28;20214;-70
2023/03/23 00:55:16;;;;;;;5.07;4.53;;;;;7.10;96498.00;;;;5088331;28;20347;-70
2023/03/23 00:58:05;;;;;;;8.50;4.13;;;;;6.80;96488.00;;;;5094735;28;20191;-71
2023/03/23 01:00:53;;;;;;;4.63;4.23;;;;;6.70;96483.00;;;;5098438;28;20313;-71
2023/03/23 01:03:41;;;;;;;5.13;3.90;;;;;6.80;96485.00;;;;5093819;28;20731;-70
2023/03/23 01:06:30;;;;;;;4.57;4.13;;;;;6.80;96483.00;;;;5111048;28;20652;-71
2023/03/23 01:09:19;;;;;;;5.00;4.50;;;;;6.60;96465.00;;;;5110375;28;20316;-70
2023/03/23 01:12:07;;;;;;;7.47;4.67;;;;;6.40;96467.00;;;;5110249;28;20222;-69
2023/03/23 01:14:56;;;;;;;4.67;4.27;;;;;6.20;96472.00;;;;5095378;28;20219;-71
2023/03/23 01:17:45;;;;;;;4.40;4.00;;;;;6.30;96466.00;;;;5108180;28;20252;-71
2023/03/23 01:20:33;;;;;;;6.40;4.83;;;;;6.20;96463.00;;;;5108520;28;20222;-71
2023/03/23 01:23:21;;;;;;;3.97;3.67;;;;;6.10;96455.00;;;;5108414;28;20702;-72
2023/03/23 01:26:11;;;;;;;7.33;4.40;;;;;6.30;96459.00;;;;5093571;28;20226;-70
2023/03/23 01:28:59;;;;;;;5.30;4.80;;;;;6.50;96466.00;;;;5100163;28;20784;-71
2023/03/23 01:31:48;;;;;;;7.37;4.40;;;;;6.40;96458.00;;;;5109226;28;20223;-71
2023/03/23 01:34:36;;;;;;;8.07;5.27;;;;;6.10;96456.00;;;;5089531;28;20653;-70
2023/03/23 01:37:26;;;;;;;6.77;4.90;;;;;6.40;96454.00;;;;5104267;28;20658;-70
2023/03/23 01:40:14;;;;;;;5.50;4.87;;;;;6.30;96453.00;;;;5103682;28;20198;-70
2023/03/23 01:43:02;;;;;;;7.43;4.93;;;;;6.30;96433.00;;;;5090509;28;20701;-71
2023/03/23 01:45:50;;;;;;;6.30;5.20;;;;;6.50;96444.00;;;;5101823;28;20276;-70
2023/03/23 01:48:40;;;;;;;6.27;5.67;;;;;6.20;96428.00;;;;5082926;28;20202;-70
2023/03/23 01:51:28;;;;;;;6.70;5.03;;;;;6.00;96426.00;;;;5091331;28;20230;-70
2023/03/23 01:54:20;;;;;;;7.90;4.67;;;;;5.70;96432.00;;;;5099499;28;20214;-71
2023/03/23 01:57:11;;;;;;;7.50;4.50;;;;;5.90;96435.00;;;;5094749;28;20564;-71
2023/03/23 02:00:07;;;;;;;7.40;4.83;;;;;6.00;96424.00;;;;5102159;28;20693;-71
2023/03/23 02:02:56;;;;;;;5.97;5.37;;;;;6.00;96427.00;;;;5088743;28;20444;-71
2023/03/23 02:05:45;;;;;;;5.33;4.53;;;;;6.20;96430.00;;;;5094686;28;20190;-71
2023/03/23 02:08:34;;;;;;;8.87;4.57;;;;;5.80;96428.00;;;;5090266;28;20280;-71
2023/03/23 02:11:23;;;;;;;5.63;4.83;;;;;5.50;96423.00;;;;5093911;28;20230;-71
2023/03/23 02:14:11;;;;;;;4.60;4.13;;;;;5.40;96436.00;;;;5092512;28;20411;-71
2023/03/23 02:17:04;;;;;;;5.53;4.10;;;;;5.70;96431.00;;;;5105401;28;20554;-71
2023/03/23 02:20:14;;;;;;;5.17;4.60;;;;;5.50;96433.00;;;;5091778;28;20521;-71
2023/03/23 02:23:40;;;;;;;5.73;4.93;;;;;5.80;96432.00;;;;5087772;28;20444;-69
2023/03/23 02:26:48;;;;;;;5.63;4.70;;;;;6.00;96434.00;;;;5024501;28;20260;-70
2023/03/23 02:29:57;;;;;;;5.43;4.47;;;;;6.10;96428.00;;;;5026162;28;20212;-70
2023/03/23 02:33:19;;;;;;;4.77;4.23;;;;;5.70;96424.00;;;;5100296;28;20198;-71
2023/03/23 02:36:18;;;;;;;10.87;4.83;;;;;5.40;96410.00;;;;5100046;28;20214;-68
2023/03/23 02:39:09;;;;;;;5.63;4.37;;;;;5.20;96419.00;;;;5092618;28;20199;-70
2023/03/23 02:42:01;;;;;;;6.17;5.13;;;;;5.20;96423.00;;;;5102095;28;20469;-68
2023/03/23 02:44:50;;;;;;;4.63;4.03;;;;;5.70;96427.00;;;;5108211;28;20432;-71
2023/03/23 02:47:40;;;;;;;5.90;5.30;;;;;5.80;96430.00;;;;5089208;28;20982;-70
2023/03/23 02:50:29;;;;;;;4.90;4.40;;;;;5.40;96416.00;;;;5092378;28;20563;-67
2023/03/23 02:53:21;;;;;;;4.13;3.83;;;;;5.60;96420.00;;;;5109609;28;20459;-68
2023/03/23 02:56:10;;;;;;;7.77;5.00;;;;;6.00;96420.00;;;;5090188;28;20277;-69
2023/03/23 02:58:58;;;;;;;5.57;4.97;;;;;6.00;96418.00;;;;5094900;28;20950;-70
2023/03/23 03:02:03;;;;;;;5.57;5.00;;;;;5.20;96418.00;;;;5108883;28;20519;-70
2023/03/23 03:04:55;;;;;;;4.97;3.87;;;;;4.90;96416.00;;;;5107080;28;20523;-68
2023/03/23 03:07:52;;;;;;;8.80;4.77;;;;;5.00;96412.00;;;;5096115;28;20543;-71
2023/03/23 03:10:45;;;;;;;5.67;5.07;;;;;5.00;96417.00;;;;5093627;28;20525;-68
2023/03/23 03:13:40;;;;;;;5.40;4.87;;;;;5.30;96412.00;;;;5104334;28;20535;-68
2023/03/23 03:16:31;;;;;;;5.80;4.57;;;;;5.10;96414.00;;;;5101007;28;20437;-68
2023/03/23 03:19:25;;;;;;;5.10;4.60;;;;;4.90;96427.00;;;;5100056;27;20195;-69
2023/03/23 03:22:13;;;;;;;6.27;4.50;;;;;4.90;96416.00;;;;5093643;28;20483;-70
2023/03/23 03:25:01;;;;;;;6.63;4.90;;;;;5.20;96421.00;;;;5079661;28;20432;-69
2023/03/23 03:27:52;;;;;;;5.67;4.33;;;;;4.60;96408.00;;;;5093548;28;20496;-70
2023/03/23 03:30:40;;;;;;;4.27;3.80;;;;;4.40;96404.00;;;;5098865;28;20436;-70
2023/03/23 03:33:30;;;;;;;4.17;3.77;;;;;4.50;96405.00;;;;5093723;28;20435;-69
2023/03/23 03:36:20;;;;;;;4.80;4.30;;;;;4.60;96407.00;;;;5104669;28;20421;-67
2023/03/23 03:39:10;;;;;;;4.50;4.07;;;;;4.60;96408.00;;;;5102692;28;20440;-70
2023/03/23 03:41:58;;;;;;;5.67;4.60;;;;;4.50;96409.00;;;;5104428;28;20453;-67
2023/03/23 03:44:47;;;;;;;4.33;3.90;;;;;4.70;96416.00;;;;5099348;28;20413;-66
2023/03/23 03:47:35;;;;;;;4.63;4.10;;;;;4.50;96421.00;;;;5110049;28;20529;-69
2023/03/23 03:50:23;;;;;;;5.90;5.35;;;;;4.50;96406.00;;;;5102942;28;20482;-68
2023/03/23 03:53:12;;;;;;;4.83;4.37;;;;;4.70;96417.00;;;;5098370;28;20429;-66
2023/03/23 03:56:01;;;;;;;4.30;3.87;;;;;4.40;96412.00;;;;5106322;28;20440;-68
2023/03/23 03:58:49;;;;;;;6.33;4.90;;;;;4.70;96419.00;;;;5110413;28;20424;-68
2023/03/23 04:01:39;;;;;;;7.23;4.33;;;;;5.30;96420.00;;;;5110811;28;20456;-68
2023/03/23 04:04:28;;;;;;;7.10;5.33;;;;;5.00;96416.00;;;;5109408;28;20511;-70
2023/03/23 04:07:17;;;;;;;4.87;4.37;;;;;4.50;96414.00;;;;5094833;28;20480;-69
2023/03/23 04:10:06;;;;;;;4.17;3.77;;;;;4.40;96406.00;;;;5110252;28;20457;-68
2023/03/23 04:12:54;;;;;;;5.07;4.57;;;;;4.40;96408.00;;;;5108144;28;20478;-68
2023/03/23 04:15:42;;;;;;;7.37;5.87;;;;;4.90;96423.00;;;;5097915;28;20521;-69
2023/03/23 04:18:33;;;;;;;6.23;5.13;;;;;5.30;96414.00;;;;5097190;28;20474;-70
2023/03/23 04:21:21;;;;;;;5.87;5.17;;;;;5.70;96428.00;;;;5104870;28;20449;-68
2023/03/23 04:24:09;;;;;;;5.00;4.53;;;;;5.60;96415.00;;;;5110557;28;20460;-70
2023/03/23 04:26:57;;;;;;;11.53;5.33;;;;;5.10;96418.00;;;;5109639;28;21016;-68
2023/03/23 04:29:48;;;;;;;4.60;4.17;;;;;4.80;96412.00;;;;5097196;28;20448;-68
2023/03/23 04:32:40;;;;;;;5.73;5.23;;;;;4.90;96412.00;;;;5098608;28;20951;-68
2023/03/23 04:35:29;;;;;;;8.53;5.40;;;;;5.20;96416.00;;;;5102149;28;20475;-70
2023/03/23 04:38:20;;;;;;;9.97;6.00;;;;;4.90;96417.00;;;;5098321;28;20445;-69
2023/03/23 04:41:07;;;;;;;5.33;4.83;;;;;4.40;96407.00;;;;5109786;28;20479;-66
2023/03/23 04:43:56;;;;;;;6.40;4.53;;;;;4.40;96411.00;;;;5091556;28;20463;-69
2023/03/23 04:46:49;;;;;;;1.33;1.33;;;;;4.30;96420.00;;;;5108264;28;20472;-66
2023/03/23 04:49:37;;;;;;;10.23;4.83;;;;;4.80;96427.00;;;;5096497;28;20443;-67
2023/03/23 04:52:28;;;;;;;5.97;5.37;;;;;5.00;96424.00;;;;5110048;28;20445;-70
2023/03/23 04:55:16;;;;;;;2.10;1.90;;;;;4.80;96420.00;;;;5109306;28;20424;-67
2023/03/23 04:58:04;;;;;;;6.27;5.23;;;;;5.00;96418.00;;;;5108592;28;20431;-66
2023/03/23 05:00:52;;;;;;;5.30;4.77;;;;;5.00;96426.00;;;;5096130;28;20445;-67
2023/03/23 05:03:40;;;;;;;6.77;4.20;;;;;4.50;96411.00;;;;5107934;28;20417;-67
2023/03/23 05:06:27;;;;;;;8.37;5.30;;;;;5.00;96419.00;;;;5100788;28;20497;-68
2023/03/23 05:09:17;;;;;;;5.47;4.77;;;;;5.10;96428.00;;;;5105383;28;20421;-69
2023/03/23 05:12:06;;;;;;;10.20;4.50;;;;;4.90;96436.00;;;;5094880;28;20448;-69
2023/03/23 05:14:54;;;;;;;6.23;5.47;;;;;5.20;96430.00;;;;5083244;28;21000;-70
2023/03/23 05:17:43;;;;;;;4.20;3.80;;;;;5.40;96429.00;;;;5090581;28;20859;-69
2023/03/23 05:20:31;;;;;;;9.43;6.00;;;;;5.30;96431.00;;;;5091790;28;20456;-68
2023/03/23 05:23:20;;;;;;;17.57;5.87;;;;;5.40;96430.00;;;;5107732;28;20468;-70
2023/03/23 05:26:09;;;;;;;5.53;4.80;;;;;5.50;96440.00;;;;5103430;28;20974;-65
2023/03/23 05:28:58;;;;;;;11.07;5.70;;;;;6.00;96432.00;;;;5100883;28;20530;-68
2023/03/23 05:31:47;;;;;;;14.43;6.23;;;;;6.10;96456.00;;;;5100860;28;20440;-67
2023/03/23 05:34:36;;;;;;;6.97;5.80;;;;;6.20;96450.00;;;;5106411;28;20453;-67
2023/03/23 05:37:24;;;;;;;4.07;3.13;;;;;5.20;96448.00;;;;5107883;28;20437;-66
2023/03/23 05:40:13;;;;;;;5.20;4.73;;;;;5.30;96451.00;;;;5106782;28;20206;-67
2023/03/23 05:43:02;;;;;;;7.77;4.97;;;;;5.50;96448.00;;;;5096570;28;20945;-69
2023/03/23 05:45:50;;;;;;;6.57;5.13;;;;;5.90;96464.00;;;;5108073;28;20507;-69
2023/03/23 05:48:38;;;;;;;5.93;5.33;;;;;6.10;96466.00;;;;5108640;28;20229;-69
2023/03/23 05:51:26;;;;;;;5.47;4.93;;;;;5.80;96462.00;;;;5107323;28;20969;-70
2023/03/23 05:54:14;;;;;;;6.53;4.80;;;;;5.40;96468.00;;;;5106637;28;20829;-68
2023/03/23 05:57:02;;;;;;;8.10;5.65;;;;;5.70;96473.00;;;;5084179;28;20444;-68
2023/03/23 05:59:52;;;;;;;5.40;4.90;;;;;5.80;96472.00;;;;5108949;28;20545;-69
2023/03/23 06:02:39;;;;;;;6.20;5.60;;;;;6.10;96473.00;;;;5088462;28;20522;-68
2023/03/23 06:05:29;;;;;;;5.77;4.77;;;;;6.40;96485.00;;;;5107355;28;20444;-69
2023/03/23 06:08:16;;;;;;;8.20;5.67;;;;;6.70;96488.00;;;;5092031;28;20818;-69
2023/03/23 06:11:05;;;;;;;5.30;4.80;;;;;6.80;96491.00;;;;5105626;28;20570;-70
2023/03/23 06:13:54;;;;;;;8.57;4.90;;;;;6.70;96492.00;;;;5096734;28;21330;-69
2023/03/23 06:16:43;;;;;;;7.00;5.93;;;;;6.60;96496.00;;;;5100742;28;20203;-67
2023/03/23 06:19:31;;;;;;;6.33;5.37;;;;;6.70;96498.00;;;;5099945;28;20289;-67
2023/03/23 06:22:19;;;;;;;7.17;5.30;;;;;6.30;96488.00;;;;5107675;28;20223;-70
2023/03/23 06:25:07;;;;;;;12.37;5.03;;;;;6.30;96489.00;;;;5093382;28;20709;-70
2023/03/23 06:27:55;;;;;;;7.60;5.50;;;;;6.60;96490.00;;;;5104935;28;20229;-68
2023/03/23 06:39:17;;;;;;;6.03;5.43;;;;;7.10;96496.00;;;;5151292;27;20760;-86
2023/03/23 06:42:05;;;;;;;7.40;5.77;;;;;7.30;96509.00;;;;5126437;27;20208;-85
2023/03/23 06:44:56;;;;;;;7.80;5.23;;;;;7.30;96497.00;;;;5141039;27;20289;-84
2023/03/23 06:55:59;;;;;;;7.13;5.70;;;;;8.00;96501.00;;;;3352844;26;20331;-69
2023/03/23 07:01:15;;;;;;;11.63;6.00;;;;;8.50;96505.00;;;;4997116;22;20683;-85
2023/03/23 07:04:04;;;;;;;7.57;6.30;;;;;8.70;96497.00;;;;4971680;28;20300;-85
2023/03/23 07:06:52;;;;;;;6.87;5.40;;;;;8.80;96500.00;;;;4971735;28;20305;-87
2023/03/23 07:09:40;;;;;;;10.70;6.47;;;;;9.30;96516.00;;;;4973904;28;20210;-84
2023/03/23 07:12:29;;;;;;;8.00;5.63;;;;;9.60;96513.00;;;;4986339;28;20246;-85
2023/03/23 07:15:17;;;;;;;7.27;5.60;;;;;9.90;96504.00;;;;4969434;28;20228;-85
2023/03/23 07:18:05;;;;;;;13.23;6.03;;;;;10.20;96509.00;;;;4975078;28;20707;-84
2023/03/23 07:20:53;;;;;;;8.57;5.83;;;;;10.50;96517.00;;;;4980951;28;20172;-85
2023/03/23 07:23:41;;;;;;;10.40;5.37;;;;;11.00;96510.00;;;;4973700;28;20282;-84
2023/03/23 07:26:29;;;;;;;9.15;6.25;;;;;11.20;96522.00;;;;4968759;28;20211;-85
2023/03/23 07:29:19;;;;;;;19.10;6.47;;;;;11.80;96521.00;;;;4985491;28;20269;-84
2023/03/23 07:32:07;;;;;;;7.20;5.40;;;;;11.80;96521.00;;;;4974340;28;20716;-85
2023/03/23 07:34:55;;;;;;;6.40;4.87;;;;;11.90;96511.00;;;;4970043;28;20231;-85
2023/03/23 07:37:45;;;;;;;6.80;4.87;;;;;12.10;96513.00;;;;4967032;28;20203;-86
2023/03/23 07:40:34;;;;;;;7.60;5.80;;;;;12.20;96510.00;;;;4961521;28;20282;-85
2023/03/23 07:43:22;;;;;;;6.70;4.97;;;;;12.30;96515.00;;;;4964519;28;20584;-85
2023/03/23 07:46:11;;;;;;;8.57;4.40;;;;;12.70;96520.00;;;;4968142;28;20274;-86
2023/03/23 07:49:00;;;;;;;7.70;5.50;;;;;12.90;96519.00;;;;4959393;28;20230;-85
2023/03/23 07:51:48;;;;;;;7.00;5.20;;;;;12.80;96518.00;;;;4952593;28;20908;-84
2023/03/23 07:54:36;;;;;;;10.60;5.17;;;;;13.10;96518.00;;;;4958902;28;20226;-86
2023/03/23 07:57:24;;;;;;;6.20;4.93;;;;;13.20;96519.00;;;;4956531;28;20327;-86
2023/03/23 08:00:15;;;;;;;5.73;4.93;;;;;13.20;96520.00;;;;4971497;28;20598;-85
2023/03/23 08:03:07;;;;;;;13.53;5.27;;;;;13.70;96523.00;;;;4967389;28;20215;-85
2023/03/23 08:05:58;;;;;;;8.53;4.33;;;;;13.90;96521.00;;;;4975896;28;20227;-84
2023/03/23 08:08:46;;;;;;;15.50;5.30;;;;;14.10;96521.00;;;;4970095;28;20230;-87
2023/03/23 08:11:35;;;;;;;9.97;4.23;;;;;14.20;96508.00;;;;4964517;28;20195;-87
2023/03/23 08:14:26;;;;;;;5.97;4.70;;;;;14.40;96520.00;;;;4968999;28;20231;-84
2023/03/23 08:17:14;;;;;;;6.17;4.47;;;;;14.60;96517.00;;;;4966157;28;20575;-87
2023/03/23 08:20:10;;;;;;;6.53;4.53;;;;;14.60;96520.00;;;;4968989;28;20215;-87
2023/03/23 08:22:59;;;;;;;9.00;5.87;;;;;14.90;96508.00;;;;4966032;28;20199;-87
2023/03/23 08:25:47;;;;;;;10.30;5.00;;;;;14.70;96504.00;;;;4965869;28;20703;-86
2023/03/23 08:28:35;;;;;;;6.70;4.13;;;;;14.60;96511.00;;;;4975868;28;20231;-85
2023/03/23 08:31:24;;;;;;;11.03;5.20;;;;;14.80;96513.00;;;;4966370;28;20234;-84
2023/03/23 08:34:12;;;;;;;11.00;5.00;;;;;14.40;96509.00;;;;4964682;28;20226;-86
2023/03/23 08:37:01;;;;;;;8.17;4.93;;;;;14.90;96518.00;;;;4966266;28;20277;-85
2023/03/23 08:39:52;;;;;;;5.80;4.63;;;;;15.20;96517.00;;;;4967084;28;20266;-85
2023/03/23 08:42:42;;;;;;;5.27;4.53;;;;;15.40;96516.00;;;;4963924;28;20283;-86
2023/03/23 08:45:30;;;;;;;8.93;6.23;;;;;15.30;96514.00;;;;4965588;28;20219;-85
2023/03/23 08:48:18;;;;;;;9.83;5.70;;;;;15.10;96515.00;;;;4969328;28;20274;-83
2023/03/23 08:51:06;;;;;;;9.13;4.40;;;;;15.20;96513.00;;;;4980512;28;20210;-85
2023/03/23 08:53:55;;;;;;;6.20;4.87;;;;;15.70;96526.00;;;;4978777;28;20210;-83
2023/03/23 08:56:43;;;;;;;8.47;4.90;;;;;15.50;96519.00;;;;4965892;28;20226;-84
2023/03/23 08:59:31;;;;;;;12.07;5.40;;;;;15.60;96516.00;;;;4962956;28;20309;-85
2023/03/23 09:02:19;;;;;;;6.43;5.47;;;;;15.80;96522.00;;;;4960510;28;20690;-85
2023/03/23 09:05:09;;;;;;;7.97;4.50;;;;;15.60;96513.00;;;;4973654;28;20255;-84
2023/03/23 09:07:59;;;;;;;12.53;5.03;;;;;15.80;96515.00;;;;4961750;28;20192;-84
2023/03/23 09:10:49;;;;;;;6.97;4.60;;;;;15.70;96520.00;;;;4963513;28;20215;-84
2023/03/23 09:13:38;;;;;;;7.00;4.90;;;;;16.00;96523.00;;;;4971901;28;20203;-84
2023/03/23 09:16:26;;;;;;;8.10;4.23;;;;;16.20;96523.00;;;;4963266;28;20219;-86
2023/03/23 09:19:15;;;;;;;7.07;3.77;;;;;16.50;96514.00;;;;4962070;28;20223;-85
2023/03/23 09:22:03;;;;;;;11.87;5.00;;;;;16.90;96510.00;;;;4964271;28;20211;-85
2023/03/23 09:24:52;;;;;;;16.00;8.93;;;;;17.00;96508.00;;;;4958966;28;20259;-86
2023/03/23 09:27:42;;;;;;;7.77;4.73;;;;;17.00;96505.00;;;;4959020;28;20303;-85
2023/03/23 09:30:33;;;;;;;12.07;5.17;;;;;17.20;96503.00;;;;4960948;28;20587;-84
2023/03/23 09:33:21;;;;;;;8.80;4.97;;;;;17.60;96508.00;;;;4960926;28;20209;-84
2023/03/23 09:36:12;;;;;;;7.20;4.77;;;;;17.80;96509.00;;;;4966020;28;20234;-83
2023/03/23 09:39:00;;;;;;;12.97;7.03;;;;;18.50;96491.00;;;;4964569;28;20226;-86
2023/03/23 09:42:05;;;;;;;9.33;5.43;;;;;19.00;96487.00;;;;4964314;28;20213;-85
2023/03/23 09:45:07;;;;;;;7.10;4.20;;;;;19.30;96478.00;;;;4962833;28;20232;-84
2023/03/23 09:48:24;;;;;;;8.30;4.33;;;;;19.80;96483.00;;;;4954290;28;20202;-85
2023/03/23 09:51:24;;;;;;;6.25;3.80;;;;;20.20;96483.00;;;;4954891;28;20211;-85
2023/03/23 09:54:17;;;;;;;13.03;4.60;;;;;20.30;96496.00;;;;4963373;28;20419;-84
2023/03/23 09:57:12;;;;;;;4.97;3.53;;;;;19.80;96499.00;;;;4956756;28;20727;-83
2023/03/23 10:00:05;;;;;;;5.50;4.10;;;;;19.00;96497.00;;;;4956261;28;20712;-83
2023/03/23 10:03:01;;;;;;;4.07;3.23;;;;;18.90;96487.00;;;;4967950;28;20245;-86
2023/03/23 10:05:51;;;;;;;7.73;4.63;;;;;18.80;96490.00;;;;4955714;28;20230;-86
2023/03/23 10:08:42;;;;;;;8.07;3.97;;;;;18.80;96487.00;;;;4955115;28;20206;-86
2023/03/23 10:11:38;;;;;;;8.20;4.10;;;;;19.50;96455.00;;;;4951682;28;20214;-85
2023/03/23 10:14:53;;;;;;;5.57;3.77;;;;;20.40;96470.00;;;;4954433;28;20266;-86
2023/03/23 10:17:50;;;;;;;10.10;3.77;;;;;20.70;96462.00;;;;4956835;28;20207;-85
2023/03/23 10:20:44;;;;;;;13.03;3.40;;;;;21.20;96463.00;;;;4964475;28;20254;-85
2023/03/23 10:23:44;;;;;;;6.40;4.40;;;;;21.30;96464.00;;;;4971695;28;20211;-85
2023/03/23 10:26:38;;;;;;;5.27;3.67;;;;;21.90;96462.00;;;;4958169;28;20573;-85
2023/03/23 10:29:29;;;;;;;7.00;3.97;;;;;22.00;96464.00;;;;4957443;28;20198;-86
2023/03/23 10:32:19;;;;;;;5.03;3.60;;;;;22.10;96448.00;;;;4955107;28;20209;-86
2023/03/23 10:35:13;;;;;;;11.57;3.93;;;;;22.60;96446.00;;;;4956285;28;20242;-85
2023/03/23 10:38:04;;;;;;;7.00;3.77;;;;;22.80;96441.00;;;;4956161;28;20269;-86
2023/03/23 10:40:56;;;;;;;4.03;3.37;;;;;22.90;96428.00;;;;4957095;28;20207;-86
2023/03/23 10:43:44;;;;;;;5.20;3.60;;;;;23.00;96431.00;;;;4956816;28;20199;-85
2023/03/23 10:46:37;;;;;;;4.90;3.97;;;;;23.30;96429.00;;;;4960241;28;20199;-85
2023/03/23 10:49:28;;;;;;;4.40;4.00;;;;;23.70;96423.00;;;;4973000;28;20191;-84
2023/03/23 10:52:27;;;;;;;3.87;3.57;;;;;24.50;96422.00;;;;4955855;28;20191;-86
2023/03/23 10:55:17;;;;;;;7.27;4.20;;;;;24.30;96429.00;;;;4954213;28;20298;-86
2023/03/23 10:58:07;;;;;;;5.07;3.60;;;;;24.40;96418.00;;;;4955772;28;20230;-86
2023/03/23 11:00:55;;;;;;;6.77;4.87;;;;;24.40;96413.00;;;;4954681;28;20221;-85
2023/03/23 11:03:46;;;;;;;8.33;3.67;;;;;24.90;96422.00;;;;4952387;28;20797;-85
2023/03/23 11:06:39;;;;;;;11.93;4.50;;;;;24.30;96428.00;;;;4955606;28;20206;-85
2023/03/23 11:09:37;;;;;;;3.77;3.37;;;;;22.90;96429.00;;;;4955059;28;20205;-86
2023/03/23 11:12:26;;;;;;;6.17;4.20;;;;;23.80;96426.00;;;;4957728;28;20325;-85
2023/03/23 11:15:28;;;;;;;4.03;3.13;;;;;24.70;96400.00;;;;4957358;28;20231;-85
2023/03/23 11:18:21;;;;;;;3.30;3.07;;;;;24.80;96428.00;;;;4956646;28;20720;-84
2023/03/23 11:21:12;;;;;;;4.10;3.43;;;;;23.60;96439.00;;;;4959591;28;20203;-84
2023/03/23 11:24:00;;;;;;;3.83;3.53;;;;;23.90;96436.00;;;;4963482;28;20239;-84
2023/03/23 11:26:50;;;;;;;5.47;4.20;;;;;25.40;96405.00;;;;4969398;28;20716;-84
2023/03/23 11:29:49;;;;;;;3.70;3.33;;;;;25.80;96417.00;;;;4977681;28;20206;-83
2023/03/23 11:32:37;;;;;;;6.23;4.10;;;;;26.00;96418.00;;;;4983807;28;20202;-84
2023/03/23 11:35:28;;;;;;;7.30;4.23;;;;;25.80;96430.00;;;;4984333;28;20235;-83
2023/03/23 11:38:19;;;;;;;5.97;4.27;;;;;25.10;96427.00;;;;4976621;28;20235;-85
2023/03/23 11:41:12;;;;;;;6.40;4.63;;;;;25.30;96395.00;;;;4964391;28;20199;-84
2023/03/23 11:44:10;;;;;;;6.87;4.37;;;;;26.50;96387.00;;;;4963306;28;20212;-84
2023/03/23 11:47:03;;;;;;;3.87;3.60;;;;;26.60;96397.00;;;;4973650;28;20216;-85
2023/03/23 11:49:56;;;;;;;7.13;4.63;;;;;26.10;96387.00;;;;4961767;28;20219;-85
2023/03/23 11:52:47;;;;;;;4.83;3.53;;;;;26.70;96404.00;;;;4960246;28;20271;-84
2023/03/23 11:55:52;;;;;;;7.40;4.13;;;;;26.80;96416.00;;;;4960587;28;20226;-85
2023/03/23 11:58:40;;;;;;;4.03;3.73;;;;;28.20;96409.00;;;;4971418;28;20236;-84
2023/03/23 12:01:38;;;;;;;3.37;3.07;;;;;27.90;96401.00;;;;4961724;28;20218;-85
2023/03/23 12:04:37;;;;;;;5.13;3.67;;;;;27.90;96360.00;;;;4960659;28;20228;-85
2023/03/23 12:07:48;;;;;;;4.13;3.73;;;;;28.70;96375.00;;;;4961233;28;20689;-84
2023/03/23 12:10:40;;;;;;;5.13;3.23;;;;;28.80;96381.00;;;;4957772;28;20677;-84
2023/03/23 12:13:52;;;;;;;5.07;3.40;;;;;28.50;96370.00;;;;4962392;28;20283;-84
2023/03/23 12:17:00;;;;;;;4.00;3.57;;;;;26.80;96373.00;;;;4960661;28;20218;-85
2023/03/23 12:19:57;;;;;;;4.07;3.60;;;;;27.80;96392.00;;;;4960814;28;20277;-85
2023/03/23 12:22:56;;;;;;;5.90;3.33;;;;;27.10;96382.00;;;;4963571;28;20239;-86
2023/03/23 12:26:14;;;;;;;5.83;3.53;;;;;25.20;96380.00;;;;4963494;28;20812;-85
2023/03/23 12:29:27;;;;;;;4.20;3.80;;;;;26.90;96378.00;;;;4967783;28;20763;-87
2023/03/23 12:32:46;;;;;;;9.33;4.70;;;;;27.30;96361.00;;;;4966576;28;20218;-85
2023/03/23 12:35:40;;;;;;;3.97;3.20;;;;;28.60;96348.00;;;;4964119;28;20233;-86
2023/03/23 12:38:46;;;;;;;4.67;3.60;;;;;29.60;96343.00;;;;4962848;28;20233;-87
2023/03/23 12:41:39;;;;;;;4.80;3.60;;;;;30.60;96339.00;;;;4959965;28;20217;-84
2023/03/23 12:44:31;;;;;;;5.43;3.97;;;;;29.30;96393.00;;;;4959541;28;20295;-85
2023/03/23 12:47:32;;;;;;;5.30;3.80;;;;;28.10;96374.00;;;;4960600;28;20245;-85
2023/03/23 12:50:26;;;;;;;4.47;2.93;;;;;27.30;96367.00;;;;4974727;28;20203;-85
2023/03/23 12:53:17;;;;;;;4.70;3.60;;;;;28.00;96336.00;;;;4962825;28;20669;-84
2023/03/23 12:56:13;;;;;;;3.67;3.37;;;;;27.50;96322.00;;;;4964413;28;20240;-87
2023/03/23 12:59:08;;;;;;;4.13;3.73;;;;;28.10;96318.00;;;;4962838;28;20233;-86
2023/03/23 13:02:00;;;;;;;4.10;3.17;;;;;27.20;96332.00;;;;4960362;28;20211;-85
2023/03/23 13:04:53;;;;;;;3.83;3.53;;;;;29.10;96346.00;;;;4959797;28;20323;-85
2023/03/23 13:07:47;;;;;;;15.30;4.97;;;;;29.60;96324.00;;;;4956838;28;20253;-86
2023/03/23 13:10:39;;;;;;;5.25;4.35;;;;;27.50;96337.00;;;;4956986;28;20203;-85
2023/03/23 13:13:40;;;;;;;4.73;4.00;;;;;28.20;96334.00;;;;4960695;28;20303;-85
2023/03/23 13:16:33;;;;;;;6.47;4.43;;;;;28.60;96332.00;;;;5019752;23;20241;-87
2023/03/23 13:19:27;;;;;;;7.70;4.30;;;;;28.60;96319.00;;;;5035055;28;20809;-87
2023/03/23 13:22:20;;;;;;;6.33;4.03;;;;;28.80;96322.00;;;;5026760;28;20276;-87
2023/03/23 13:25:14;;;;;;;10.85;4.50;;;;;28.50;96326.00;;;;5027095;28;20627;-87
2023/03/23 13:28:02;;;;;;;6.55;4.68;;;;;30.00;96308.00;;;;5030705;28;20333;-87
2023/03/23 13:31:02;;;;;;;6.70;5.30;;;;;30.60;96307.00;;;;5025582;28;20200;-87
2023/03/23 13:33:52;;;;;;;6.18;4.78;;;;;28.10;96296.00;;;;5025802;28;20740;-87
2023/03/23 13:36:42;;;;;;;7.22;6.07;;;;;30.10;96289.00;;;;5030919;28;20218;-87
2023/03/23 13:39:33;;;;;;;8.30;5.15;;;;;29.10;96294.00;;;;5033919;28;20217;-86
2023/03/23 13:42:23;;;;;;;9.15;5.07;;;;;28.40;96303.00;;;;5034558;28;20211;-86
2023/03/23 13:45:22;;;;;;;6.03;4.70;;;;;27.10;96292.00;;;;5026519;28;20205;-86
2023/03/23 13:48:21;;;;;;;6.25;5.72;;;;;28.50;96310.00;;;;5043451;28;20216;-87
2023/03/23 13:51:28;;;;;;;6.50;5.50;;;;;28.90;96309.00;;;;5041305;28;20280;-85
2023/03/23 13:54:24;;;;;;;7.15;5.10;;;;;25.90;96302.00;;;;5035975;28;20203;-86
2023/03/23 13:57:37;;;;;;;6.30;4.82;;;;;26.30;96300.00;;;;5042454;28;20231;-85
2023/03/23 14:00:38;;;;;;;5.43;4.93;;;;;27.60;96317.00;;;;5033968;28;20608;-86
2023/03/23 14:03:28;;;;;;;7.03;4.70;;;;;25.70;96300.00;;;;5032099;28;20201;-86
2023/03/23 14:06:18;;;;;;;7.13;4.47;;;;;26.50;96320.00;;;;5037974;28;20266;-85
2023/03/23 14:09:09;;;;;;;5.63;4.63;;;;;26.90;96340.00;;;;5030014;28;20766;-85
2023/03/23 14:11:58;;;;;;;6.43;5.18;;;;;24.90;96357.00;;;;5037429;28;20311;-85
2023/03/23 14:14:49;;;;;;;7.40;5.47;;;;;24.60;96316.00;;;;5023605;28;20670;-85
2023/03/23 14:17:45;;;;;;;9.33;5.27;;;;;26.80;96313.00;;;;5033626;28;20207;-86
2023/03/23 14:20:34;;;;;;;5.47;4.97;;;;;27.00;96316.00;;;;5028503;28;20240;-86
2023/03/23 14:23:24;;;;;;;10.70;5.60;;;;;27.50;96322.00;;;;5035106;28;20209;-87
2023/03/23 14:26:14;;;;;;;7.43;5.20;;;;;28.30;96329.00;;;;5027220;28;20201;-85
2023/03/23 14:29:02;;;;;;;9.68;5.25;;;;;29.40;96327.00;;;;5029082;28;20223;-87
2023/03/23 14:31:57;;;;;;;7.22;4.80;;;;;28.50;96334.00;;;;5045206;28;20222;-86
2023/03/23 14:34:47;;;;;;;5.15;4.32;;;;;29.10;96327.00;;;;5034244;28;20216;-86
2023/03/23 14:37:36;;;;;;;7.93;4.60;;;;;30.00;96328.00;;;;5028541;28;20228;-86
2023/03/23 14:40:26;;;;;;;8.55;4.50;;;;;30.40;96325.00;;;;5028491;28;20259;-86
2023/03/23 14:43:17;;;;;;;11.68;4.72;;;;;30.80;96325.00;;;;5033629;28;21070;-86